Tanna Airport
NVVW : now visible

Airfield :











YOU CAN JOIN US ON...

 
LOGIN :

Register | Disclaimer

   EN    FR    IT 

 









Legend :    VFR   Marginal VFR   IFR   Intensive IFR   Very Intensive IFR
Visi :
Ceiling :
>= 8 km
>= 3000ft
5 to 8 km
1000 to 3000 ft
1500m to 5 km
500 to 1000 ft
800 to 1500m
200 to 500 ft
< 800m
< 200 ft
Symbols :   Thunderstorms  Fog  Heavy snow  Heavy precipitations  Wind > 20 kt






- Airport Elevation : 19 ft
- IATA code : TAH


NVVW - Tanna

CURRENT METAR :
  • 012200Z 09003KT 9999 SCT020 BKN040 26/23 Q1018

EXPIRED METARs :
  • 012100Z 09003KT 9999 SCT020 BKN040 24/23 Q1018
  • 012000Z 09004KT 9999 SCT020 BKN040 23/22 Q1017

TAF TAF NVVW
Valid from the 01 at 18:00 until the 02 at 18:00 UTC


011700Z 0118/0218 VRB04KT 9999 SCT020 INTER 0118/0124 -SHRA BKN018
NFFF FIR / Oceania



MET'MAP, your aeronautical weather chart ! - Copyright ORBIFLY December 2007 - Disclaimer

ORBIFLY MET'MAP TEAM :

Programming & Development : Alexandra Zaïnal
Original concept : Baudouin d'Aumeries
Technical & hardware support : Manuel Goepfert
Assistance : Marc-Olivier Méhu




SOURCES & CREDITS :

   NOAA       Earth
Advisory